createdAt,value
2022-08-28T00:00:59.914Z,7.70
2022-08-28T00:03:26.957Z,7.40
2022-08-28T00:05:54.958Z,7.35
2022-08-28T00:08:22.225Z,7.60
2022-08-28T00:10:49.993Z,7.68
2022-08-28T00:13:21.363Z,6.82
2022-08-28T00:15:58.321Z,7.25
2022-08-28T00:18:26.549Z,7.80
2022-08-28T00:20:54.523Z,6.70
2022-08-28T00:23:22.037Z,7.35
2022-08-28T00:25:49.344Z,7.20
2022-08-28T00:28:23.681Z,7.95
2022-08-28T00:30:55.307Z,6.35
2022-08-28T00:33:40.705Z,7.50
2022-08-28T00:36:07.829Z,7.00
2022-08-28T00:38:34.790Z,7.30
2022-08-28T00:41:03.991Z,7.03
2022-08-28T00:43:40.131Z,6.85
2022-08-28T00:46:15.301Z,7.20
2022-08-28T00:48:42.820Z,7.13
2022-08-28T00:51:29.414Z,7.63
2022-08-28T00:53:59.311Z,7.20
2022-08-28T00:56:28.584Z,7.20
2022-08-28T00:58:57.618Z,7.45
2022-08-28T01:01:25.009Z,7.30
2022-08-28T01:03:52.263Z,6.95
2022-08-28T01:06:22.524Z,7.47
2022-08-28T01:08:52.150Z,7.13
2022-08-28T01:11:20.573Z,7.78
2022-08-28T01:13:49.843Z,7.22
2022-08-28T01:16:18.803Z,7.55
2022-08-28T01:18:47.073Z,7.53
2022-08-28T01:22:05.165Z,7.13
2022-08-28T01:24:32.794Z,7.45
2022-08-28T01:26:59.739Z,7.43
2022-08-28T01:29:29.088Z,7.60
2022-08-28T01:31:56.191Z,6.40
2022-08-28T01:34:23.767Z,7.00
2022-08-28T01:36:50.862Z,6.65
2022-08-28T01:39:24.434Z,7.10
2022-08-28T01:41:54.226Z,6.88
2022-08-28T01:44:25.840Z,6.78
2022-08-28T01:46:57.593Z,6.95
2022-08-28T01:49:29.304Z,7.40
2022-08-28T01:51:57.437Z,7.03
2022-08-28T01:54:26.642Z,7.00
2022-08-28T01:56:54.761Z,7.13
2022-08-28T01:59:21.959Z,6.47
2022-08-28T02:01:49.310Z,6.40
2022-08-28T02:04:16.729Z,6.90
2022-08-28T02:06:43.794Z,7.03
2022-08-28T02:09:14.801Z,6.35
2022-08-28T02:11:46.401Z,6.78
2022-08-28T02:14:14.211Z,6.28
2022-08-28T02:16:41.237Z,6.55
2022-08-28T02:19:08.169Z,6.25
2022-08-28T02:21:35.882Z,6.28
2022-08-28T02:24:03.298Z,6.78
2022-08-28T02:26:31.809Z,6.35
2022-08-28T02:28:59.272Z,6.78
2022-08-28T02:31:27.256Z,6.50
2022-08-28T02:33:55.621Z,7.15
2022-08-28T02:36:23.479Z,6.88
2022-08-28T02:38:57.351Z,7.03
2022-08-28T02:41:25.008Z,6.50
2022-08-28T02:43:52.384Z,6.57
2022-08-28T02:46:19.356Z,7.00
2022-08-28T02:48:47.057Z,7.22
2022-08-28T02:51:14.752Z,7.00
2022-08-28T02:53:42.646Z,6.53
2022-08-28T02:56:10.528Z,6.85
2022-08-28T02:58:38.171Z,6.25
2022-08-28T03:01:10.016Z,6.78
2022-08-28T03:03:38.298Z,6.97
2022-08-28T03:06:08.892Z,6.70
2022-08-28T03:08:35.948Z,6.68
2022-08-28T03:11:02.995Z,6.85
2022-08-28T03:13:30.676Z,6.80
2022-08-28T03:15:58.696Z,6.68
2022-08-28T03:18:30.275Z,6.85
2022-08-28T03:20:57.621Z,7.05
2022-08-28T03:23:27.778Z,6.55
2022-08-28T03:26:11.828Z,7.05
2022-08-28T03:28:53.137Z,7.32
2022-08-28T03:31:23.984Z,7.15
2022-08-28T03:33:51.827Z,7.53
2022-08-28T03:36:23.712Z,6.78
2022-08-28T03:38:53.282Z,6.53
2022-08-28T03:41:23.294Z,7.25
2022-08-28T03:43:51.003Z,6.88
2022-08-28T03:46:22.740Z,7.25
2022-08-28T03:48:50.467Z,7.25
2022-08-28T03:51:26.280Z,7.60
2022-08-28T03:54:01.129Z,7.03
2022-08-28T03:56:30.187Z,7.25
2022-08-28T03:59:01.439Z,6.65
2022-08-28T04:01:28.672Z,6.95
2022-08-28T04:03:56.349Z,7.03
2022-08-28T04:06:23.344Z,7.63
2022-08-28T04:08:51.148Z,7.15
2022-08-28T04:11:18.639Z,7.13
2022-08-28T04:13:45.877Z,7.63
2022-08-28T04:16:16.761Z,6.97
2022-08-28T04:18:43.896Z,7.60
2022-08-28T04:21:18.105Z,7.15
2022-08-28T04:23:48.116Z,7.90
2022-08-28T04:26:19.521Z,7.15
2022-08-28T04:28:48.514Z,7.78
2022-08-28T04:31:17.107Z,7.65
2022-08-28T04:33:45.507Z,7.78
2022-08-28T04:36:16.553Z,7.47
2022-08-28T04:38:44.308Z,8.20
2022-08-28T04:41:14.064Z,6.95
2022-08-28T04:43:41.165Z,8.35
2022-08-28T04:46:12.404Z,7.72
2022-08-28T04:48:40.639Z,7.45
2022-08-28T04:51:10.109Z,6.90
2022-08-28T04:53:38.950Z,7.47
2022-08-28T04:56:09.483Z,7.72
2022-08-28T04:58:38.137Z,8.20
2022-08-28T05:01:18.290Z,7.75
2022-08-28T05:03:47.969Z,7.15
2022-08-28T05:06:16.498Z,7.68
2022-08-28T05:08:44.098Z,7.78
2022-08-28T05:11:34.209Z,7.90
2022-08-28T05:14:04.534Z,8.40
2022-08-28T05:16:34.725Z,7.38
2022-08-28T05:19:03.472Z,7.70
2022-08-28T05:21:30.454Z,8.38
2022-08-28T05:23:59.187Z,8.05
2022-08-28T05:26:28.377Z,8.02
2022-08-28T05:28:59.937Z,7.78
2022-08-28T05:31:29.587Z,8.55
2022-08-28T05:33:57.615Z,7.88
2022-08-28T05:36:26.192Z,8.75
2022-08-28T05:39:00.354Z,7.88
2022-08-28T05:41:33.036Z,7.68
2022-08-28T05:44:04.030Z,7.78
2022-08-28T05:46:31.137Z,8.05
2022-08-28T05:48:58.546Z,8.05
2022-08-28T05:51:29.185Z,7.97
2022-08-28T05:53:57.862Z,8.15
2022-08-28T05:56:35.878Z,7.85
2022-08-28T05:59:05.768Z,7.88
2022-08-28T06:01:37.127Z,7.93
2022-08-28T06:04:14.748Z,7.90
2022-08-28T06:06:42.811Z,8.45
2022-08-28T06:09:18.155Z,8.07
2022-08-28T06:11:46.388Z,7.93
2022-08-28T06:14:17.909Z,8.70
2022-08-28T06:16:48.769Z,7.80
2022-08-28T06:19:17.165Z,7.95
2022-08-28T06:21:46.934Z,8.30
2022-08-28T06:24:14.117Z,8.23
2022-08-28T06:26:42.226Z,7.72
2022-08-28T06:29:13.400Z,8.23
2022-08-28T06:31:40.690Z,8.43
2022-08-28T06:34:09.350Z,8.40
2022-08-28T06:36:41.938Z,8.05
2022-08-28T06:39:11.810Z,8.77
2022-08-28T06:41:43.055Z,8.43
2022-08-28T06:44:13.515Z,8.13
2022-08-28T06:46:44.668Z,8.60
2022-08-28T06:49:12.645Z,8.85
2022-08-28T06:51:40.209Z,8.25
2022-08-28T06:54:07.698Z,8.13
2022-08-28T06:56:35.039Z,8.20
2022-08-28T06:59:02.583Z,8.63
2022-08-28T07:01:36.830Z,8.73
2022-08-28T07:04:11.223Z,8.32
2022-08-28T07:06:43.188Z,9.15
2022-08-28T07:09:13.619Z,8.45
2022-08-28T07:11:44.328Z,8.63
2022-08-28T07:14:11.313Z,8.55
2022-08-28T07:16:39.904Z,7.70
2022-08-28T07:19:08.631Z,7.95
2022-08-28T07:21:41.927Z,7.53
2022-08-28T07:24:11.717Z,8.50
2022-08-28T07:26:41.195Z,7.85
2022-08-28T07:29:09.928Z,8.45
2022-08-28T07:31:49.159Z,8.25
2022-08-28T07:34:18.942Z,8.18
2022-08-28T07:36:46.602Z,9.30
2022-08-28T07:39:15.390Z,8.60
2022-08-28T07:41:43.225Z,8.73
2022-08-28T07:44:33.118Z,8.65
2022-08-28T07:47:05.681Z,8.50
2022-08-28T07:49:34.567Z,8.80
2022-08-28T07:52:02.624Z,7.53
2022-08-28T07:54:29.603Z,8.23
2022-08-28T07:56:56.699Z,8.65
2022-08-28T07:59:23.785Z,8.77
2022-08-28T08:01:52.241Z,8.25
2022-08-28T08:04:21.867Z,8.10
2022-08-28T08:06:50.080Z,8.77
2022-08-28T08:09:20.327Z,8.40
2022-08-28T08:11:49.438Z,8.40
2022-08-28T08:14:17.647Z,8.45
2022-08-28T08:16:47.445Z,8.35
2022-08-28T08:19:15.905Z,8.30
2022-08-28T08:21:46.789Z,8.18
2022-08-28T08:24:20.713Z,8.15
2022-08-28T08:26:58.751Z,7.65
2022-08-28T08:29:29.987Z,7.97
2022-08-28T08:32:02.812Z,7.90
2022-08-28T08:34:29.816Z,8.30
2022-08-28T08:36:56.935Z,7.65
2022-08-28T08:39:23.905Z,8.07
2022-08-28T08:41:57.066Z,7.55
2022-08-28T08:44:33.474Z,7.72
2022-08-28T08:47:48.932Z,7.22
2022-08-28T08:50:30.222Z,7.40
2022-08-28T08:53:25.709Z,7.43
2022-08-28T08:55:55.756Z,6.75
2022-08-28T08:58:42.264Z,6.75
2022-08-28T09:01:29.535Z,7.30
2022-08-28T09:04:34.473Z,6.75
2022-08-28T09:07:18.418Z,6.85
2022-08-28T09:09:54.532Z,6.30
2022-08-28T09:12:26.106Z,6.43
2022-08-28T09:15:21.067Z,6.28
2022-08-28T09:18:20.915Z,6.88
2022-08-28T09:20:54.987Z,6.38
2022-08-28T09:23:23.873Z,6.18
2022-08-28T09:26:01.777Z,6.03
2022-08-28T09:28:39.088Z,6.63
2022-08-28T09:31:13.938Z,6.20
2022-08-28T09:33:45.911Z,6.30
2022-08-28T09:36:35.427Z,6.22
2022-08-28T09:39:15.186Z,5.93
2022-08-28T09:42:32.982Z,6.20
2022-08-28T09:45:21.198Z,5.70
2022-08-28T09:47:57.459Z,5.22
2022-08-28T09:50:29.742Z,5.72
2022-08-28T09:53:09.161Z,5.50
2022-08-28T09:56:11.165Z,4.97
2022-08-28T09:58:47.055Z,6.30
2022-08-28T10:01:27.334Z,5.10
2022-08-28T10:04:26.274Z,5.25
2022-08-28T10:07:09.397Z,5.47
2022-08-28T10:10:29.902Z,5.30
2022-08-28T10:13:20.208Z,6.10
2022-08-28T10:16:17.493Z,5.50
2022-08-28T10:19:02.477Z,6.05
2022-08-28T10:22:04.903Z,5.95
2022-08-28T10:25:09.535Z,5.53
2022-08-28T10:28:13.475Z,5.30
2022-08-28T10:31:23.533Z,5.45
2022-08-28T10:34:11.840Z,5.10
2022-08-28T10:36:38.796Z,5.60
2022-08-28T10:39:36.188Z,5.65
2022-08-28T10:42:06.530Z,5.20
2022-08-28T10:44:40.451Z,5.03
2022-08-28T10:47:08.677Z,5.40
2022-08-28T10:49:41.644Z,5.22
2022-08-28T10:52:16.537Z,5.35
2022-08-28T10:54:57.728Z,5.38
2022-08-28T10:57:40.819Z,5.80
2022-08-28T11:00:24.497Z,5.43
2022-08-28T11:03:01.055Z,6.05
2022-08-28T11:05:40.093Z,5.28
2022-08-28T11:08:23.365Z,5.30
2022-08-28T11:10:53.093Z,5.60
2022-08-28T11:13:48.563Z,5.18
2022-08-28T11:16:36.527Z,5.47
2022-08-28T11:19:25.279Z,5.38
2022-08-28T11:22:01.825Z,5.68
2022-08-28T11:25:02.430Z,5.60
2022-08-28T11:27:33.858Z,5.10
2022-08-28T11:30:09.559Z,5.32
2022-08-28T11:32:50.255Z,4.60
2022-08-28T11:35:46.047Z,5.45
2022-08-28T11:38:42.012Z,4.85
2022-08-28T11:41:22.707Z,5.30
2022-08-28T11:44:13.493Z,5.13
2022-08-28T11:46:44.230Z,5.60
2022-08-28T11:49:26.529Z,5.15
2022-08-28T11:52:08.126Z,5.38
2022-08-28T11:54:50.900Z,5.20
2022-08-28T11:57:26.231Z,4.53
2022-08-28T12:00:08.726Z,5.07
2022-08-28T12:02:41.517Z,5.13
2022-08-28T12:05:17.825Z,5.80
2022-08-28T12:07:48.452Z,5.22
2022-08-28T12:10:24.701Z,5.50
2022-08-28T12:12:57.550Z,5.28
2022-08-28T12:15:27.372Z,5.40
2022-08-28T12:18:06.844Z,5.57
2022-08-28T12:20:51.040Z,5.78
2022-08-28T12:23:24.129Z,5.00
2022-08-28T12:26:02.670Z,5.25
2022-08-28T12:28:45.929Z,5.45
2022-08-28T12:31:52.719Z,4.75
2022-08-28T12:34:50.469Z,5.35
2022-08-28T12:37:52.146Z,4.88
2022-08-28T12:40:26.944Z,5.28
2022-08-28T12:43:04.328Z,5.70
2022-08-28T12:45:59.369Z,5.25
2022-08-28T12:48:54.388Z,5.75
2022-08-28T12:51:32.144Z,5.85
2022-08-28T12:54:03.259Z,6.05
2022-08-28T12:56:38.107Z,5.85
2022-08-28T12:59:39.467Z,5.32
2022-08-28T13:02:09.859Z,5.70
2022-08-28T13:04:55.538Z,5.72
2022-08-28T13:07:38.525Z,5.55
2022-08-28T13:10:23.345Z,5.47
2022-08-28T13:13:06.936Z,5.68
2022-08-28T13:16:03.145Z,5.13
2022-08-28T13:18:50.301Z,5.38
2022-08-28T13:21:32.971Z,4.97
2022-08-28T13:24:23.690Z,4.80
2022-08-28T13:27:06.119Z,5.07
2022-08-28T13:29:34.584Z,5.00
2022-08-28T13:32:07.506Z,4.75
2022-08-28T13:34:37.992Z,4.97
2022-08-28T13:37:20.211Z,5.15
2022-08-28T13:39:47.828Z,5.15
2022-08-28T13:42:17.970Z,5.22
2022-08-28T13:44:53.905Z,4.75
2022-08-28T13:47:20.852Z,4.95
2022-08-28T13:49:48.327Z,4.68
2022-08-28T13:52:15.472Z,5.10
2022-08-28T13:54:45.323Z,5.07
2022-08-28T13:57:15.555Z,5.55
2022-08-28T13:59:45.568Z,5.07
2022-08-28T14:02:32.901Z,4.90
2022-08-28T14:05:00.535Z,5.13
2022-08-28T14:07:27.643Z,5.13
2022-08-28T14:09:56.536Z,5.18
2022-08-28T14:12:32.604Z,5.18
2022-08-28T14:15:01.721Z,5.93
2022-08-28T14:17:28.946Z,5.22
2022-08-28T14:19:56.080Z,5.30
2022-08-28T14:22:23.182Z,5.25
2022-08-28T14:24:50.148Z,5.15
2022-08-28T14:27:18.613Z,4.53
2022-08-28T14:29:45.945Z,5.13
2022-08-28T14:32:13.010Z,5.15
2022-08-28T14:34:40.009Z,5.13
2022-08-28T14:37:07.244Z,5.05
2022-08-28T14:39:34.295Z,4.80
2022-08-28T14:42:02.595Z,5.45
2022-08-28T14:44:29.626Z,4.78
2022-08-28T14:46:57.149Z,5.43
2022-08-28T14:49:25.321Z,5.15
2022-08-28T14:51:54.152Z,5.07
2022-08-28T14:54:24.888Z,4.80
2022-08-28T14:56:53.774Z,5.25
2022-08-28T14:59:26.725Z,5.35
2022-08-28T15:01:58.226Z,4.97
2022-08-28T15:04:27.159Z,4.93
2022-08-28T15:06:59.577Z,4.85
2022-08-28T15:09:26.772Z,4.43
2022-08-28T15:11:53.961Z,5.10
2022-08-28T15:14:20.989Z,4.57
2022-08-28T15:16:50.512Z,4.55
2022-08-28T15:19:18.336Z,4.70
2022-08-28T15:21:53.063Z,4.68
2022-08-28T15:24:25.016Z,4.80
2022-08-28T15:26:52.168Z,4.97
2022-08-28T15:29:19.090Z,4.38
2022-08-28T15:31:49.156Z,4.47
2022-08-28T15:34:21.961Z,4.65
2022-08-28T15:36:56.076Z,4.93
2022-08-28T15:39:44.302Z,5.00
2022-08-28T15:42:11.767Z,4.53
2022-08-28T15:44:39.059Z,4.68
2022-08-28T15:47:07.383Z,4.47
2022-08-28T15:49:44.790Z,4.70
2022-08-28T15:52:16.204Z,4.38
2022-08-28T15:54:43.281Z,4.35
2022-08-28T15:57:10.269Z,4.75
2022-08-28T15:59:48.991Z,4.75
2022-08-28T16:02:23.070Z,4.38
2022-08-28T16:04:51.055Z,4.10
2022-08-28T16:07:19.356Z,4.63
2022-08-28T16:09:46.337Z,4.43
2022-08-28T16:12:13.699Z,5.10
2022-08-28T16:14:40.859Z,4.53
2022-08-28T16:17:10.821Z,4.30
2022-08-28T16:19:40.485Z,4.32
2022-08-28T16:22:09.063Z,4.72
2022-08-28T16:24:37.738Z,4.72
2022-08-28T16:27:06.215Z,4.88
2022-08-28T16:29:35.569Z,4.63
2022-08-28T16:32:05.309Z,4.82
2022-08-28T16:34:33.504Z,4.97
2022-08-28T16:37:01.112Z,4.63
2022-08-28T16:39:28.200Z,4.80
2022-08-28T16:41:55.190Z,4.57
2022-08-28T16:44:27.946Z,4.75
2022-08-28T16:46:55.901Z,5.03
2022-08-28T16:49:23.785Z,4.57
2022-08-28T16:51:51.197Z,5.05
2022-08-28T16:54:18.707Z,4.80
2022-08-28T16:56:46.618Z,5.10
2022-08-28T16:59:16.596Z,5.28
2022-08-28T17:01:43.769Z,5.13
2022-08-28T17:04:12.397Z,5.85
2022-08-28T17:06:44.625Z,5.35
2022-08-28T17:09:15.007Z,5.53
2022-08-28T17:11:42.069Z,5.55
2022-08-28T17:14:11.086Z,6.53
2022-08-28T17:16:38.115Z,6.45
2022-08-28T17:19:05.127Z,6.68
2022-08-28T17:21:50.437Z,5.22
2022-08-28T17:24:17.629Z,4.18
2022-08-28T17:26:44.617Z,4.43
2022-08-28T17:29:11.655Z,4.57
2022-08-28T17:31:38.731Z,3.92
2022-08-28T17:34:07.439Z,4.20
2022-08-28T17:36:40.745Z,4.15
2022-08-28T17:39:13.211Z,3.83
2022-08-28T17:41:40.562Z,5.40
2022-08-28T17:44:08.205Z,4.55
2022-08-28T17:46:37.931Z,4.63
2022-08-28T17:49:07.053Z,4.40
2022-08-28T17:51:43.780Z,4.47
2022-08-28T17:54:18.162Z,3.92
2022-08-28T17:56:45.375Z,4.40
2022-08-28T17:59:13.089Z,3.83
2022-08-28T18:01:42.038Z,3.63
2022-08-28T18:04:09.336Z,3.42
2022-08-28T18:06:37.151Z,3.67
2022-08-28T18:09:06.132Z,3.70
2022-08-28T18:11:33.264Z,3.38
2022-08-28T18:14:00.845Z,3.50
2022-08-28T18:16:31.397Z,3.42
2022-08-28T18:19:00.027Z,3.20
2022-08-28T18:21:27.275Z,3.00
2022-08-28T18:23:54.253Z,3.35
2022-08-28T18:26:21.181Z,2.97
2022-08-28T18:28:48.681Z,2.88
2022-08-28T18:31:17.255Z,2.80
2022-08-28T18:33:44.788Z,2.67
2022-08-28T18:36:13.666Z,2.80
2022-08-28T18:38:42.137Z,2.50
2022-08-28T18:41:10.015Z,2.40
2022-08-28T18:43:37.326Z,2.65
2022-08-28T18:46:08.883Z,2.40
2022-08-28T18:48:37.209Z,2.55
2022-08-28T18:51:10.478Z,2.65
2022-08-28T18:53:37.897Z,2.17
2022-08-28T18:56:06.583Z,2.53
2022-08-28T18:58:34.111Z,2.30
2022-08-28T19:01:02.314Z,2.28
2022-08-28T19:03:30.294Z,2.00
2022-08-28T19:05:57.402Z,2.10
2022-08-28T19:08:25.342Z,2.10
2022-08-28T19:10:53.169Z,2.10
2022-08-28T19:13:20.579Z,1.98
2022-08-28T19:15:53.580Z,2.20
2022-08-28T19:18:21.254Z,2.10
2022-08-28T19:20:48.358Z,2.10
2022-08-28T19:23:17.894Z,1.92
2022-08-28T19:25:45.894Z,2.08
2022-08-28T19:28:14.013Z,2.17
2022-08-28T19:30:41.210Z,2.10
2022-08-28T19:33:08.197Z,1.95
2022-08-28T19:35:35.207Z,1.90
2022-08-28T19:38:02.167Z,1.65
2022-08-28T19:40:29.257Z,2.20
2022-08-28T19:42:56.328Z,1.90
2022-08-28T19:45:23.443Z,1.80
2022-08-28T19:47:50.477Z,1.58
2022-08-28T19:50:17.886Z,2.00
2022-08-28T19:52:46.043Z,2.38
2022-08-28T19:55:24.223Z,2.33
2022-08-28T19:57:51.403Z,2.00
2022-08-28T20:00:28.241Z,1.70
2022-08-28T20:02:56.320Z,1.80
2022-08-28T20:05:23.852Z,2.30
2022-08-28T20:07:51.233Z,1.85
2022-08-28T20:10:19.446Z,1.98
2022-08-28T20:12:48.294Z,2.10
2022-08-28T20:15:18.629Z,2.42
2022-08-28T20:17:49.371Z,2.53
2022-08-28T20:20:19.622Z,2.70
2022-08-28T20:22:46.950Z,2.60
2022-08-28T20:25:15.627Z,2.15
2022-08-28T20:27:42.569Z,2.22
2022-08-28T20:30:11.419Z,1.92
2022-08-28T20:32:40.369Z,2.30
2022-08-28T20:35:10.140Z,2.78
2022-08-28T20:37:44.865Z,2.30
2022-08-28T20:40:18.767Z,2.35
2022-08-28T20:42:46.604Z,1.95
2022-08-28T20:45:15.584Z,2.70
2022-08-28T20:47:43.255Z,2.35
2022-08-28T20:50:11.267Z,2.65
2022-08-28T20:52:38.674Z,2.17
2022-08-28T20:55:08.041Z,2.58
2022-08-28T20:57:35.501Z,2.22
2022-08-28T21:00:08.594Z,2.45
2022-08-28T21:02:35.745Z,2.15
2022-08-28T21:05:03.437Z,2.40
2022-08-28T21:07:30.569Z,2.20
2022-08-28T21:10:06.262Z,2.33
2022-08-28T21:12:36.859Z,2.47
2022-08-28T21:15:09.288Z,2.75
2022-08-28T21:17:36.570Z,2.65
2022-08-28T21:20:11.036Z,2.30
2022-08-28T21:22:39.547Z,2.95
2022-08-28T21:25:09.928Z,2.67
2022-08-28T21:27:38.049Z,2.45
2022-08-28T21:30:08.674Z,2.78
2022-08-28T21:32:36.310Z,2.50
2022-08-28T21:35:06.977Z,2.25
2022-08-28T21:37:34.428Z,2.45
2022-08-28T21:40:03.987Z,2.47
2022-08-28T21:42:31.029Z,2.45
2022-08-28T21:44:58.455Z,2.85
2022-08-28T21:47:25.919Z,2.60
2022-08-28T21:49:56.348Z,2.50
2022-08-28T21:52:28.460Z,2.60
2022-08-28T21:55:07.637Z,2.70
2022-08-28T21:57:34.840Z,2.50
2022-08-28T22:00:02.183Z,2.47
2022-08-28T22:02:29.225Z,2.30
2022-08-28T22:04:56.226Z,2.40
2022-08-28T22:07:23.203Z,2.55
2022-08-28T22:09:50.829Z,2.83
2022-08-28T22:12:17.853Z,2.85
2022-08-28T22:14:44.980Z,2.60
2022-08-28T22:17:12.293Z,2.58
2022-08-28T22:19:39.714Z,2.47
2022-08-28T22:22:26.175Z,2.30
2022-08-28T22:24:53.119Z,2.60
2022-08-28T22:27:20.105Z,2.50
2022-08-28T22:29:47.059Z,2.30
2022-08-28T22:32:14.098Z,2.55
2022-08-28T22:34:44.860Z,2.65
2022-08-28T22:37:13.065Z,3.00
2022-08-28T22:39:42.231Z,2.70
2022-08-28T22:42:10.314Z,3.00
2022-08-28T22:44:38.551Z,3.00
2022-08-28T22:47:06.031Z,3.17
2022-08-28T22:49:33.349Z,3.40
2022-08-28T22:52:03.121Z,3.00
2022-08-28T22:54:32.693Z,3.30
2022-08-28T22:56:59.621Z,3.30
2022-08-28T22:59:28.031Z,3.38
2022-08-28T23:01:55.102Z,3.47
2022-08-28T23:04:22.123Z,3.53
2022-08-28T23:06:49.848Z,3.80
2022-08-28T23:09:16.765Z,3.83
2022-08-28T23:11:44.005Z,4.00
2022-08-28T23:14:10.985Z,4.18
2022-08-28T23:16:38.228Z,4.30
2022-08-28T23:19:09.118Z,4.15
2022-08-28T23:21:43.534Z,3.90
2022-08-28T23:24:16.150Z,4.10
2022-08-28T23:26:44.745Z,4.13
2022-08-28T23:29:12.898Z,4.10
2022-08-28T23:31:40.169Z,3.80
2022-08-28T23:34:07.645Z,4.07
2022-08-28T23:36:36.591Z,4.00
2022-08-28T23:39:05.248Z,4.30
2022-08-28T23:41:33.621Z,4.90
2022-08-28T23:44:03.208Z,5.00
2022-08-28T23:46:33.616Z,4.68
2022-08-28T23:49:00.636Z,4.82
2022-08-28T23:51:27.592Z,4.88
2022-08-28T23:53:55.061Z,5.38
2022-08-28T23:56:22.081Z,5.40
2022-08-28T23:58:55.151Z,4.70
